createdAt,value
2017-09-06T00:00:43.443Z,860.35
2017-09-06T00:01:43.431Z,860.35
2017-09-06T00:02:43.455Z,860.30
2017-09-06T00:03:43.662Z,860.33
2017-09-06T00:04:43.402Z,860.30
2017-09-06T00:05:43.393Z,860.32
2017-09-06T00:06:43.382Z,860.28
2017-09-06T00:07:43.371Z,860.31
2017-09-06T00:08:43.363Z,860.26
2017-09-06T00:09:43.652Z,860.28
2017-09-06T00:10:43.342Z,860.29
2017-09-06T00:11:43.332Z,860.27
2017-09-06T00:12:43.325Z,860.26
2017-09-06T00:13:43.312Z,860.22
2017-09-06T00:14:43.302Z,860.21
2017-09-06T00:15:43.593Z,860.22
2017-09-06T00:16:43.285Z,860.21
2017-09-06T00:17:43.272Z,860.18
2017-09-06T00:18:43.270Z,860.19
2017-09-06T00:19:43.255Z,860.19
2017-09-06T00:20:43.243Z,860.14
2017-09-06T00:21:43.234Z,860.16
2017-09-06T00:22:43.224Z,860.15
2017-09-06T00:23:43.214Z,860.13
2017-09-06T00:24:43.206Z,860.15
2017-09-06T00:25:43.193Z,860.13
2017-09-06T00:26:43.186Z,860.20
2017-09-06T00:27:43.174Z,860.17
2017-09-06T00:28:43.164Z,860.19
2017-09-06T00:29:43.156Z,860.18
2017-09-06T00:30:43.445Z,860.15
2017-09-06T00:31:43.134Z,860.18
2017-09-06T00:32:43.127Z,860.17
2017-09-06T00:33:43.116Z,860.12
2017-09-06T00:34:43.104Z,860.13
2017-09-06T00:35:43.095Z,860.13
2017-09-06T00:36:43.085Z,860.15
2017-09-06T00:37:43.074Z,860.18
2017-09-06T00:38:43.065Z,860.13
2017-09-06T00:39:43.056Z,860.13
2017-09-06T00:40:43.298Z,860.10
2017-09-06T00:41:43.035Z,860.06
2017-09-06T00:42:43.027Z,860.02
2017-09-06T00:43:43.015Z,860.03
2017-09-06T00:44:43.005Z,859.97
2017-09-06T00:45:42.997Z,859.96
2017-09-06T00:46:43.285Z,859.95
2017-09-06T00:47:42.978Z,859.94
2017-09-06T00:48:42.965Z,859.94
2017-09-06T00:49:42.957Z,859.92
2017-09-06T00:50:42.948Z,859.92
2017-09-06T00:51:42.935Z,859.91
2017-09-06T00:52:42.928Z,859.91
2017-09-06T00:53:42.916Z,859.95
2017-09-06T00:54:42.906Z,859.92
2017-09-06T00:55:42.897Z,859.91
2017-09-06T00:56:42.886Z,859.92
2017-09-06T00:57:42.875Z,859.90
2017-09-06T00:58:42.867Z,859.84
2017-09-06T00:59:42.858Z,859.85
2017-09-06T01:00:42.846Z,859.81
2017-09-06T01:01:43.136Z,859.83
2017-09-06T01:02:42.829Z,859.79
2017-09-06T01:03:42.816Z,859.80
2017-09-06T01:04:42.807Z,859.78
2017-09-06T01:05:42.796Z,859.79
2017-09-06T01:06:42.787Z,859.77
2017-09-06T01:07:43.076Z,859.76
2017-09-06T01:08:42.768Z,859.76
2017-09-06T01:09:42.755Z,859.75
2017-09-06T01:10:42.748Z,859.76
2017-09-06T01:11:42.738Z,859.74
2017-09-06T01:12:42.729Z,859.77
2017-09-06T01:13:43.017Z,859.74
2017-09-06T01:14:42.712Z,859.74
2017-09-06T01:15:42.697Z,859.75
2017-09-06T01:16:42.685Z,859.73
2017-09-06T01:17:42.680Z,859.69
2017-09-06T01:18:42.669Z,859.68
2017-09-06T01:19:42.655Z,859.72
2017-09-06T01:20:42.645Z,859.70
2017-09-06T01:21:42.934Z,859.66
2017-09-06T01:22:42.625Z,859.66
2017-09-06T01:23:42.615Z,859.66
2017-09-06T01:24:42.607Z,859.64
2017-09-06T01:25:42.751Z,859.65
2017-09-06T01:26:42.586Z,859.67
2017-09-06T01:27:42.825Z,859.67
2017-09-06T01:28:42.567Z,859.71
2017-09-06T01:29:42.555Z,859.72
2017-09-06T01:30:42.545Z,859.66
2017-09-06T01:31:42.534Z,859.72
2017-09-06T01:32:42.524Z,859.72
2017-09-06T01:33:42.766Z,859.73
2017-09-06T01:34:42.505Z,859.75
2017-09-06T01:35:42.496Z,859.73
2017-09-06T01:36:42.485Z,859.76
2017-09-06T01:37:42.476Z,859.70
2017-09-06T01:38:42.466Z,859.70
2017-09-06T01:39:42.709Z,859.70
2017-09-06T01:40:42.446Z,859.74
2017-09-06T01:41:42.436Z,859.70
2017-09-06T01:42:42.430Z,859.70
2017-09-06T01:43:42.416Z,859.72
2017-09-06T01:44:42.433Z,859.71
2017-09-06T01:45:42.394Z,859.72
2017-09-06T01:46:42.386Z,859.71
2017-09-06T01:47:42.674Z,859.74
2017-09-06T01:48:42.365Z,859.73
2017-09-06T01:49:42.356Z,859.73
2017-09-06T01:50:42.347Z,859.72
2017-09-06T01:51:42.335Z,859.73
2017-09-06T01:52:42.326Z,859.71
2017-09-06T01:53:42.566Z,859.73
2017-09-06T01:54:42.306Z,859.73
2017-09-06T01:55:42.296Z,859.72
2017-09-06T01:56:42.284Z,859.73
2017-09-06T01:57:42.300Z,859.74
2017-09-06T01:58:42.267Z,859.78
2017-09-06T01:59:42.556Z,859.77
2017-09-06T02:00:42.244Z,859.76
2017-09-06T02:01:42.233Z,859.75
2017-09-06T02:02:42.226Z,859.72
2017-09-06T02:03:42.219Z,859.72
2017-09-06T02:04:42.209Z,859.74
2017-09-06T02:05:42.496Z,859.74
2017-09-06T02:06:42.186Z,859.74
2017-09-06T02:07:42.177Z,859.72
2017-09-06T02:08:42.165Z,859.72
2017-09-06T02:09:42.156Z,859.68
2017-09-06T02:10:42.145Z,859.70
2017-09-06T02:11:42.386Z,859.64
2017-09-06T02:12:42.125Z,859.58
2017-09-06T02:13:42.115Z,859.57
2017-09-06T02:14:42.108Z,859.58
2017-09-06T02:15:42.095Z,859.58
2017-09-06T02:16:42.087Z,859.58
2017-09-06T02:17:42.379Z,859.55
2017-09-06T02:18:42.064Z,859.59
2017-09-06T02:19:42.053Z,859.60
2017-09-06T02:20:42.045Z,859.53
2017-09-06T02:21:42.036Z,859.57
2017-09-06T02:22:42.027Z,859.52
2017-09-06T02:23:42.317Z,859.50
2017-09-06T02:24:42.005Z,859.52
2017-09-06T02:25:41.997Z,859.52
2017-09-06T02:26:41.985Z,859.50
2017-09-06T02:27:41.976Z,859.53
2017-09-06T02:28:41.965Z,859.50
2017-09-06T02:29:41.957Z,859.53
2017-09-06T02:30:41.946Z,859.50
2017-09-06T02:31:42.236Z,859.50
2017-09-06T02:32:42.227Z,859.50
2017-09-06T02:33:41.917Z,859.49
2017-09-06T02:34:41.906Z,859.42
2017-09-06T02:35:41.899Z,859.40
2017-09-06T02:36:41.893Z,859.42
2017-09-06T02:37:41.877Z,859.44
2017-09-06T02:38:42.167Z,859.41
2017-09-06T02:39:41.858Z,859.38
2017-09-06T02:40:41.846Z,859.37
2017-09-06T02:41:41.838Z,859.36
2017-09-06T02:42:41.830Z,859.36
2017-09-06T02:43:41.818Z,859.41
2017-09-06T02:44:42.062Z,859.39
2017-09-06T02:45:41.800Z,859.39
2017-09-06T02:46:41.788Z,859.39
2017-09-06T02:47:41.777Z,859.39
2017-09-06T02:48:41.769Z,859.39
2017-09-06T02:49:41.759Z,859.38
2017-09-06T02:50:42.050Z,859.36
2017-09-06T02:51:41.748Z,859.38
2017-09-06T02:52:41.736Z,859.38
2017-09-06T02:53:41.721Z,859.39
2017-09-06T02:54:41.713Z,859.39
2017-09-06T02:55:41.700Z,859.37
2017-09-06T02:56:41.693Z,859.40
2017-09-06T02:57:41.678Z,859.38
2017-09-06T02:58:41.668Z,859.37
2017-09-06T02:59:41.658Z,859.37
2017-09-06T03:00:41.649Z,859.35
2017-09-06T03:01:41.940Z,859.38
2017-09-06T03:02:41.628Z,859.33
2017-09-06T03:03:41.621Z,859.33
2017-09-06T03:04:41.610Z,859.35
2017-09-06T03:05:41.601Z,859.32
2017-09-06T03:06:41.593Z,859.34
2017-09-06T03:07:41.845Z,859.37
2017-09-06T03:08:41.571Z,859.33
2017-09-06T03:09:41.559Z,859.31
2017-09-06T03:10:41.551Z,859.32
2017-09-06T03:11:41.541Z,859.30
2017-09-06T03:12:41.534Z,859.26
2017-09-06T03:13:41.771Z,859.28
2017-09-06T03:14:41.512Z,859.24
2017-09-06T03:15:41.500Z,859.20
2017-09-06T03:16:41.491Z,859.26
2017-09-06T03:17:41.481Z,859.22
2017-09-06T03:18:41.473Z,859.20
2017-09-06T03:19:41.765Z,859.19
2017-09-06T03:20:41.452Z,859.20
2017-09-06T03:21:41.441Z,859.17
2017-09-06T03:22:41.432Z,859.14
2017-09-06T03:23:41.422Z,859.14
2017-09-06T03:24:41.414Z,859.08
2017-09-06T03:25:41.652Z,859.08
2017-09-06T03:26:41.390Z,859.05
2017-09-06T03:27:41.384Z,859.04
2017-09-06T03:28:41.373Z,859.05
2017-09-06T03:29:41.362Z,859.04
2017-09-06T03:30:41.352Z,859.04
2017-09-06T03:31:41.596Z,859.03
2017-09-06T03:32:41.332Z,858.98
2017-09-06T03:33:41.321Z,859.00
2017-09-06T03:34:41.313Z,859.01
2017-09-06T03:35:41.303Z,859.00
2017-09-06T03:36:41.293Z,858.99
2017-09-06T03:37:41.284Z,858.98
2017-09-06T03:38:41.271Z,859.00
2017-09-06T03:39:41.261Z,859.01
2017-09-06T03:40:41.253Z,859.00
2017-09-06T03:41:41.243Z,859.03
2017-09-06T03:42:41.233Z,859.06
2017-09-06T03:43:41.223Z,859.05
2017-09-06T03:44:41.212Z,859.04
2017-09-06T03:45:41.202Z,859.06
2017-09-06T03:46:41.191Z,859.06
2017-09-06T03:47:41.483Z,859.06
2017-09-06T03:48:41.173Z,859.05
2017-09-06T03:49:41.161Z,859.06
2017-09-06T03:50:41.150Z,859.04
2017-09-06T03:51:41.142Z,859.09
2017-09-06T03:52:41.132Z,859.07
2017-09-06T03:53:41.421Z,859.07
2017-09-06T03:54:41.110Z,859.11
2017-09-06T03:55:41.099Z,859.13
2017-09-06T03:56:41.093Z,859.14
2017-09-06T03:57:41.080Z,859.17
2017-09-06T03:58:41.069Z,859.09
2017-09-06T03:59:41.312Z,859.10
2017-09-06T04:00:41.052Z,859.10
2017-09-06T04:01:41.043Z,859.10
2017-09-06T04:02:41.033Z,859.09
2017-09-06T04:03:41.021Z,859.11
2017-09-06T04:04:41.011Z,859.12
2017-09-06T04:05:41.254Z,859.11
2017-09-06T04:06:40.991Z,859.14
2017-09-06T04:07:40.980Z,859.13
2017-09-06T04:08:40.970Z,859.11
2017-09-06T04:09:40.959Z,859.11
2017-09-06T04:10:40.952Z,859.10
2017-09-06T04:11:41.192Z,859.09
2017-09-06T04:12:40.929Z,859.08
2017-09-06T04:13:40.921Z,859.10
2017-09-06T04:14:40.910Z,859.11
2017-09-06T04:15:40.901Z,859.09
2017-09-06T04:16:40.890Z,859.12
2017-09-06T04:17:41.181Z,859.10
2017-09-06T04:18:40.872Z,859.12
2017-09-06T04:19:40.859Z,859.10
2017-09-06T04:20:40.863Z,859.14
2017-09-06T04:21:40.839Z,859.09
2017-09-06T04:22:40.829Z,859.11
2017-09-06T04:23:41.072Z,859.08
2017-09-06T04:24:40.933Z,859.07
2017-09-06T04:25:40.800Z,859.09
2017-09-06T04:26:40.790Z,859.08
2017-09-06T04:27:40.781Z,859.11
2017-09-06T04:28:40.768Z,859.09
2017-09-06T04:29:41.009Z,859.13
2017-09-06T04:30:40.751Z,859.12
2017-09-06T04:31:40.739Z,859.13
2017-09-06T04:32:40.730Z,859.06
2017-09-06T04:33:40.720Z,859.07
2017-09-06T04:34:40.708Z,859.04
2017-09-06T04:35:40.951Z,859.07
2017-09-06T04:36:40.688Z,859.08
2017-09-06T04:37:40.678Z,859.05
2017-09-06T04:38:40.668Z,859.06
2017-09-06T04:39:40.659Z,859.03
2017-09-06T04:40:40.648Z,859.05
2017-09-06T04:41:40.940Z,859.09
2017-09-06T04:42:40.779Z,859.09
2017-09-06T04:43:40.620Z,859.11
2017-09-06T04:44:40.607Z,859.09
2017-09-06T04:45:40.597Z,859.14
2017-09-06T04:46:40.587Z,859.12
2017-09-06T04:47:40.578Z,859.18
2017-09-06T04:48:40.570Z,859.20
2017-09-06T04:49:40.556Z,859.16
2017-09-06T04:50:40.548Z,859.16
2017-09-06T04:51:40.538Z,859.14
2017-09-06T04:52:40.528Z,859.15
2017-09-06T04:53:40.817Z,859.08
2017-09-06T04:54:40.506Z,859.13
2017-09-06T04:55:40.498Z,859.09
2017-09-06T04:56:40.487Z,859.10
2017-09-06T04:57:40.475Z,859.09
2017-09-06T04:58:40.468Z,859.05
2017-09-06T04:59:40.757Z,859.07
2017-09-06T05:00:40.444Z,859.03
2017-09-06T05:01:40.437Z,859.05
2017-09-06T05:02:40.426Z,859.07
2017-09-06T05:03:40.717Z,859.09
2017-09-06T05:04:40.406Z,859.06
2017-09-06T05:05:40.397Z,859.11
2017-09-06T05:06:40.536Z,859.11
2017-09-06T05:07:40.376Z,859.12
2017-09-06T05:08:40.367Z,859.14
2017-09-06T05:09:40.661Z,859.10
2017-09-06T05:10:40.345Z,859.13
2017-09-06T05:11:40.334Z,859.12
2017-09-06T05:12:40.325Z,859.15
2017-09-06T05:13:40.315Z,859.13
2017-09-06T05:14:40.303Z,859.15
2017-09-06T05:15:40.594Z,859.14
2017-09-06T05:16:40.285Z,859.12
2017-09-06T05:17:40.272Z,859.14
2017-09-06T05:18:40.261Z,859.16
2017-09-06T05:19:40.254Z,859.13
2017-09-06T05:20:40.245Z,859.16
2017-09-06T05:21:40.484Z,859.22
2017-09-06T05:22:40.223Z,859.22
2017-09-06T05:23:40.213Z,859.23
2017-09-06T05:24:40.201Z,859.24
2017-09-06T05:25:40.192Z,859.24
2017-09-06T05:26:40.181Z,859.24
2017-09-06T05:27:40.473Z,859.23
2017-09-06T05:28:40.163Z,859.24
2017-09-06T05:29:40.150Z,859.25
2017-09-06T05:30:40.142Z,859.24
2017-09-06T05:31:40.132Z,859.21
2017-09-06T05:32:40.121Z,859.21
2017-09-06T05:33:40.110Z,859.14
2017-09-06T05:34:40.101Z,859.14
2017-09-06T05:35:40.092Z,859.19
2017-09-06T05:36:40.080Z,859.19
2017-09-06T05:37:40.070Z,859.18
2017-09-06T05:38:40.359Z,859.19
2017-09-06T05:39:40.052Z,859.19
2017-09-06T05:40:40.042Z,859.17
2017-09-06T05:41:40.031Z,859.16
2017-09-06T05:42:40.020Z,859.19
2017-09-06T05:43:40.012Z,859.20
2017-09-06T05:44:40.299Z,859.19
2017-09-06T05:45:39.990Z,859.23
2017-09-06T05:46:39.979Z,859.22
2017-09-06T05:47:39.997Z,859.21
2017-09-06T05:48:39.962Z,859.24
2017-09-06T05:49:39.949Z,859.22
2017-09-06T05:50:40.240Z,859.24
2017-09-06T05:51:39.930Z,859.20
2017-09-06T05:52:39.921Z,859.20
2017-09-06T05:53:39.910Z,859.17
2017-09-06T05:54:39.903Z,859.20
2017-09-06T05:55:39.891Z,859.22
2017-09-06T05:56:40.134Z,859.20
2017-09-06T05:57:39.871Z,859.20
2017-09-06T05:58:39.861Z,859.24
2017-09-06T05:59:39.854Z,859.24
2017-09-06T06:00:39.843Z,859.22
2017-09-06T06:01:39.834Z,859.21
2017-09-06T06:02:40.124Z,859.24
2017-09-06T06:03:39.814Z,859.26
2017-09-06T06:04:39.805Z,859.25
2017-09-06T06:05:39.793Z,859.24
2017-09-06T06:06:39.784Z,859.22
2017-09-06T06:07:39.774Z,859.21
2017-09-06T06:08:40.017Z,859.24
2017-09-06T06:09:39.756Z,859.21
2017-09-06T06:10:39.746Z,859.21
2017-09-06T06:11:39.735Z,859.23
2017-09-06T06:12:39.728Z,859.22
2017-09-06T06:13:39.715Z,859.20
2017-09-06T06:14:39.963Z,859.21
2017-09-06T06:15:39.699Z,859.26
2017-09-06T06:16:39.688Z,859.22
2017-09-06T06:17:39.678Z,859.21
2017-09-06T06:18:39.670Z,859.23
2017-09-06T06:19:39.660Z,859.24
2017-09-06T06:20:39.952Z,859.24
2017-09-06T06:21:39.789Z,859.27
2017-09-06T06:22:39.630Z,859.27
2017-09-06T06:23:39.620Z,859.28
2017-09-06T06:24:39.612Z,859.28
2017-09-06T06:25:39.601Z,859.27
2017-09-06T06:26:39.893Z,859.25
2017-09-06T06:27:39.583Z,859.23
2017-09-06T06:28:39.572Z,859.25
2017-09-06T06:29:39.563Z,859.27
2017-09-06T06:30:39.581Z,859.23
2017-09-06T06:31:39.543Z,859.23
2017-09-06T06:32:39.836Z,859.24
2017-09-06T06:33:39.525Z,859.25
2017-09-06T06:34:39.518Z,859.21
2017-09-06T06:35:39.507Z,859.20
2017-09-06T06:36:39.496Z,859.22
2017-09-06T06:37:39.486Z,859.25
2017-09-06T06:38:39.777Z,859.19
2017-09-06T06:39:39.468Z,859.20
2017-09-06T06:40:39.460Z,859.20
2017-09-06T06:41:39.448Z,859.22
2017-09-06T06:42:39.440Z,859.23
2017-09-06T06:43:39.429Z,859.18
2017-09-06T06:44:39.673Z,859.21
2017-09-06T06:45:39.410Z,859.17
2017-09-06T06:46:39.401Z,859.18
2017-09-06T06:47:39.396Z,859.20
2017-09-06T06:48:39.384Z,859.21
2017-09-06T06:49:39.373Z,859.17
2017-09-06T06:50:39.613Z,859.14
2017-09-06T06:51:39.356Z,859.12
2017-09-06T06:52:39.344Z,859.15
2017-09-06T06:53:39.335Z,859.14
2017-09-06T06:54:39.329Z,859.13
2017-09-06T06:55:39.316Z,859.15
2017-09-06T06:56:39.606Z,859.17
2017-09-06T06:57:39.295Z,859.17
2017-09-06T06:58:39.287Z,859.18
2017-09-06T06:59:39.278Z,859.20
2017-09-06T07:00:39.268Z,859.18
2017-09-06T07:01:39.256Z,859.18
2017-09-06T07:02:39.499Z,859.19
2017-09-06T07:03:39.239Z,859.16
2017-09-06T07:04:39.231Z,859.15
2017-09-06T07:05:39.221Z,859.16
2017-09-06T07:06:39.210Z,859.15
2017-09-06T07:07:39.203Z,859.16
2017-09-06T07:08:39.493Z,859.18
2017-09-06T07:09:39.182Z,859.17
2017-09-06T07:10:39.171Z,859.16
2017-09-06T07:11:39.164Z,859.15
2017-09-06T07:12:39.154Z,859.16
2017-09-06T07:13:39.445Z,859.13
2017-09-06T07:14:39.385Z,859.12
2017-09-06T07:15:39.127Z,859.14
2017-09-06T07:16:39.118Z,859.14
2017-09-06T07:17:39.105Z,859.13
2017-09-06T07:18:39.096Z,859.17
2017-09-06T07:19:39.087Z,859.17
2017-09-06T07:20:39.380Z,859.20
2017-09-06T07:21:39.068Z,859.15
2017-09-06T07:22:39.057Z,859.19
2017-09-06T07:23:39.051Z,859.14
2017-09-06T07:24:39.191Z,859.13
2017-09-06T07:25:39.031Z,859.13
2017-09-06T07:26:39.273Z,859.10
2017-09-06T07:27:39.013Z,859.10
2017-09-06T07:28:39.004Z,859.06
2017-09-06T07:29:38.993Z,859.08
2017-09-06T07:30:38.985Z,859.08
2017-09-06T07:31:38.975Z,859.11
2017-09-06T07:32:39.267Z,859.11
2017-09-06T07:33:38.956Z,859.11
2017-09-06T07:34:38.948Z,859.11
2017-09-06T07:35:38.935Z,859.09
2017-09-06T07:36:38.928Z,859.15
2017-09-06T07:37:38.919Z,859.14
2017-09-06T07:38:39.209Z,859.10
2017-09-06T07:39:38.900Z,859.14
2017-09-06T07:40:38.888Z,859.14
2017-09-06T07:41:38.880Z,859.15
2017-09-06T07:42:38.871Z,859.13
2017-09-06T07:43:38.860Z,859.16
2017-09-06T07:44:39.153Z,859.14
2017-09-06T07:45:38.843Z,859.19
2017-09-06T07:46:38.833Z,859.17
2017-09-06T07:47:38.823Z,859.17
2017-09-06T07:48:38.814Z,859.15
2017-09-06T07:49:38.803Z,859.20
2017-09-06T07:50:39.096Z,859.15
2017-09-06T07:51:38.784Z,859.15
2017-09-06T07:52:38.775Z,859.18
2017-09-06T07:53:38.766Z,859.13
2017-09-06T07:54:38.757Z,859.12
2017-09-06T07:55:38.748Z,859.10
2017-09-06T07:56:39.046Z,859.14
2017-09-06T07:57:38.728Z,859.09
2017-09-06T07:58:38.718Z,859.09
2017-09-06T07:59:38.710Z,859.08
2017-09-06T08:00:38.705Z,859.08
2017-09-06T08:01:38.691Z,859.08
2017-09-06T08:02:38.933Z,859.06
2017-09-06T08:03:38.671Z,859.10
2017-09-06T08:04:38.663Z,859.11
2017-09-06T08:05:38.653Z,859.09
2017-09-06T08:06:38.642Z,859.11
2017-09-06T08:07:38.636Z,859.12
2017-09-06T08:08:38.924Z,859.09
2017-09-06T08:09:38.614Z,859.10
2017-09-06T08:10:38.605Z,859.13
2017-09-06T08:11:38.595Z,859.09
2017-09-06T08:12:38.586Z,859.09
2017-09-06T08:13:38.575Z,859.04
2017-09-06T08:14:38.572Z,859.02
2017-09-06T08:15:38.559Z,859.03
2017-09-06T08:16:38.548Z,859.03
2017-09-06T08:17:38.540Z,859.01
2017-09-06T08:18:38.831Z,858.99
2017-09-06T08:19:38.519Z,859.03
2017-09-06T08:20:38.512Z,858.99
2017-09-06T08:21:38.529Z,858.99
2017-09-06T08:22:38.497Z,858.99
2017-09-06T08:23:38.484Z,858.95
2017-09-06T08:24:38.475Z,858.94
2017-09-06T08:25:38.465Z,858.95
2017-09-06T08:26:38.457Z,858.97
2017-09-06T08:27:38.445Z,858.96
2017-09-06T08:28:38.439Z,858.96
2017-09-06T08:29:38.676Z,858.96
2017-09-06T08:30:38.420Z,858.95
2017-09-06T08:31:38.409Z,858.98
2017-09-06T08:32:38.409Z,858.99
2017-09-06T08:33:38.401Z,858.91
2017-09-06T08:34:38.383Z,858.91
2017-09-06T08:35:38.623Z,858.96
2017-09-06T08:36:38.365Z,858.95
2017-09-06T08:37:38.355Z,858.95
2017-09-06T08:38:38.347Z,858.99
2017-09-06T08:39:38.338Z,859.02
2017-09-06T08:40:38.328Z,858.98
2017-09-06T08:41:38.620Z,858.97
2017-09-06T08:42:38.309Z,859.01
2017-09-06T08:43:38.300Z,859.02
2017-09-06T08:44:38.294Z,859.01
2017-09-06T08:45:38.281Z,859.00
2017-09-06T08:46:38.273Z,859.04
2017-09-06T08:47:38.515Z,859.03
2017-09-06T08:48:38.258Z,859.04
2017-09-06T08:49:38.247Z,859.00
2017-09-06T08:50:38.240Z,859.03
2017-09-06T08:51:38.230Z,858.99
2017-09-06T08:52:38.522Z,859.00
2017-09-06T08:53:38.514Z,859.01
2017-09-06T08:54:38.206Z,858.99
2017-09-06T08:55:38.198Z,858.97
2017-09-06T08:56:38.188Z,858.97
2017-09-06T08:57:38.180Z,858.95
2017-09-06T08:58:38.172Z,858.95
2017-09-06T08:59:38.412Z,858.95
2017-09-06T09:00:38.155Z,858.92
2017-09-06T09:01:38.149Z,858.88
2017-09-06T09:02:38.140Z,858.93
2017-09-06T09:03:38.129Z,858.92
2017-09-06T09:04:38.124Z,858.91
2017-09-06T09:05:38.415Z,858.91
2017-09-06T09:06:38.107Z,858.92
2017-09-06T09:07:38.099Z,858.93
2017-09-06T09:08:38.090Z,858.98
2017-09-06T09:09:38.082Z,858.93
2017-09-06T09:10:38.074Z,858.93
2017-09-06T09:11:38.315Z,858.84
2017-09-06T09:12:38.056Z,858.90
2017-09-06T09:13:38.049Z,858.83
2017-09-06T09:14:38.042Z,858.79
2017-09-06T09:15:38.034Z,858.82
2017-09-06T09:16:38.025Z,858.82
2017-09-06T09:17:38.315Z,858.79
2017-09-06T09:18:38.008Z,858.73
2017-09-06T09:19:37.998Z,858.74
2017-09-06T09:20:37.994Z,858.72
2017-09-06T09:21:37.984Z,858.74
2017-09-06T09:22:37.976Z,858.71
2017-09-06T09:23:38.268Z,858.68
2017-09-06T09:24:37.958Z,858.68
2017-09-06T09:25:37.949Z,858.68
2017-09-06T09:26:37.943Z,858.69
2017-09-06T09:27:37.936Z,858.69
2017-09-06T09:28:37.927Z,858.71
2017-09-06T09:29:38.217Z,858.66
2017-09-06T09:30:37.910Z,858.69
2017-09-06T09:31:37.914Z,858.64
2017-09-06T09:32:37.895Z,858.65
2017-09-06T09:33:37.884Z,858.65
2017-09-06T09:34:37.879Z,858.65
2017-09-06T09:35:37.869Z,858.62
2017-09-06T09:36:38.113Z,858.65
2017-09-06T09:37:37.855Z,858.63
2017-09-06T09:38:37.847Z,858.65
2017-09-06T09:39:37.839Z,858.63
2017-09-06T09:40:37.833Z,858.64
2017-09-06T09:41:37.821Z,858.60
2017-09-06T09:42:38.063Z,858.60
2017-09-06T09:43:37.805Z,858.60
2017-09-06T09:44:37.801Z,858.60
2017-09-06T09:45:37.788Z,858.63
2017-09-06T09:46:37.780Z,858.63
2017-09-06T09:47:37.774Z,858.63
2017-09-06T09:48:38.020Z,858.57
2017-09-06T09:49:37.754Z,858.62
2017-09-06T09:50:37.749Z,858.58
2017-09-06T09:51:37.738Z,858.58
2017-09-06T09:52:37.732Z,858.59
2017-09-06T09:53:37.723Z,858.59
2017-09-06T09:54:38.016Z,858.60
2017-09-06T09:55:37.707Z,858.56
2017-09-06T09:56:37.700Z,858.59
2017-09-06T09:57:37.690Z,858.56
2017-09-06T09:58:37.682Z,858.58
2017-09-06T09:59:37.675Z,858.59
2017-09-06T10:00:37.966Z,858.58
2017-09-06T10:01:37.658Z,858.59
2017-09-06T10:02:37.648Z,858.57
2017-09-06T10:03:37.642Z,858.54
2017-09-06T10:04:37.634Z,858.49
2017-09-06T10:05:37.625Z,858.52
2017-09-06T10:06:37.919Z,858.54
2017-09-06T10:07:37.609Z,858.54
2017-09-06T10:08:37.601Z,858.57
2017-09-06T10:09:37.594Z,858.60
2017-09-06T10:10:37.587Z,858.53
2017-09-06T10:11:37.578Z,858.53
2017-09-06T10:12:37.821Z,858.50
2017-09-06T10:13:37.565Z,858.50
2017-09-06T10:14:37.554Z,858.45
2017-09-06T10:15:37.546Z,858.43
2017-09-06T10:16:37.543Z,858.45
2017-09-06T10:17:37.532Z,858.43
2017-09-06T10:18:37.777Z,858.39
2017-09-06T10:19:37.519Z,858.39
2017-09-06T10:20:37.512Z,858.37
2017-09-06T10:21:37.504Z,858.35
2017-09-06T10:22:37.497Z,858.32
2017-09-06T10:23:37.488Z,858.33
2017-09-06T10:24:37.783Z,858.33
2017-09-06T10:25:37.477Z,858.31
2017-09-06T10:26:37.470Z,858.28
2017-09-06T10:27:37.462Z,858.27
2017-09-06T10:28:37.455Z,858.25
2017-09-06T10:29:37.449Z,858.23
2017-09-06T10:30:37.689Z,858.24
2017-09-06T10:31:37.433Z,858.14
2017-09-06T10:32:37.427Z,858.13
2017-09-06T10:33:37.418Z,858.10
2017-09-06T10:34:37.414Z,858.08
2017-09-06T10:35:37.409Z,858.10
2017-09-06T10:36:37.699Z,858.09
2017-09-06T10:37:37.393Z,858.07
2017-09-06T10:38:37.387Z,858.07
2017-09-06T10:39:37.378Z,858.06
2017-09-06T10:40:37.373Z,858.05
2017-09-06T10:41:37.367Z,858.07
2017-09-06T10:42:37.659Z,858.01
2017-09-06T10:43:37.353Z,858.03
2017-09-06T10:44:37.349Z,858.00
2017-09-06T10:45:37.343Z,858.06
2017-09-06T10:46:37.336Z,858.00
2017-09-06T10:47:37.328Z,857.98
2017-09-06T10:48:37.624Z,858.00
2017-09-06T10:49:37.316Z,857.99
2017-09-06T10:50:37.311Z,857.98
2017-09-06T10:51:37.305Z,858.00
2017-09-06T10:52:37.300Z,857.94
2017-09-06T10:53:37.293Z,858.00
2017-09-06T10:54:37.538Z,857.96
2017-09-06T10:55:37.279Z,857.98
2017-09-06T10:56:37.275Z,857.95
2017-09-06T10:57:37.272Z,857.93
2017-09-06T10:58:37.266Z,857.89
2017-09-06T10:59:37.260Z,857.92
2017-09-06T11:00:37.252Z,857.97
2017-09-06T11:01:37.253Z,857.92
2017-09-06T11:02:37.240Z,857.95
2017-09-06T11:03:37.236Z,857.90
2017-09-06T11:04:37.531Z,857.88
2017-09-06T11:05:37.224Z,857.90
2017-09-06T11:06:37.219Z,857.88
2017-09-06T11:07:37.212Z,857.85
2017-09-06T11:08:37.209Z,857.82
2017-09-06T11:09:37.201Z,857.84
2017-09-06T11:10:37.618Z,857.83
2017-09-06T11:11:37.191Z,857.77
2017-09-06T11:12:37.187Z,857.83
2017-09-06T11:13:37.180Z,857.85
2017-09-06T11:14:37.177Z,857.82
2017-09-06T11:15:37.326Z,857.84
2017-09-06T11:16:37.168Z,857.85
2017-09-06T11:17:37.162Z,857.84
2017-09-06T11:18:37.156Z,857.83
2017-09-06T11:19:37.152Z,857.83
2017-09-06T11:20:37.146Z,857.87
2017-09-06T11:21:37.140Z,857.83
2017-09-06T11:22:37.135Z,857.86
2017-09-06T11:23:37.130Z,857.82
2017-09-06T11:24:37.124Z,857.84
2017-09-06T11:25:37.420Z,857.81
2017-09-06T11:26:37.115Z,857.85
2017-09-06T11:27:37.108Z,857.85
2017-09-06T11:28:37.102Z,857.84
2017-09-06T11:29:37.097Z,857.85
2017-09-06T11:30:37.091Z,857.87
2017-09-06T11:31:37.338Z,857.87
2017-09-06T11:32:37.082Z,857.83
2017-09-06T11:33:37.551Z,857.86
2017-09-06T11:34:37.072Z,857.81
2017-09-06T11:35:37.065Z,857.83
2017-09-06T11:36:37.061Z,857.81
2017-09-06T11:37:37.303Z,857.80
2017-09-06T11:38:37.048Z,857.82
2017-09-06T11:39:37.044Z,857.84
2017-09-06T11:40:37.040Z,857.82
2017-09-06T11:41:37.033Z,857.84
2017-09-06T11:42:37.027Z,857.83
2017-09-06T11:43:37.274Z,857.85
2017-09-06T11:44:37.017Z,857.80
2017-09-06T11:45:37.159Z,857.85
2017-09-06T11:46:37.037Z,857.78
2017-09-06T11:47:37.152Z,857.77
2017-09-06T11:48:36.995Z,857.78
2017-09-06T11:49:36.987Z,857.81
2017-09-06T11:50:36.982Z,857.82
2017-09-06T11:51:36.979Z,857.80
2017-09-06T11:52:36.973Z,857.79
2017-09-06T11:53:36.965Z,857.78
2017-09-06T11:54:36.962Z,857.76
2017-09-06T11:55:37.256Z,857.77
2017-09-06T11:56:36.951Z,857.77
2017-09-06T11:57:37.024Z,857.80
2017-09-06T11:58:36.937Z,857.73
2017-09-06T11:59:36.936Z,857.79
2017-09-06T12:00:36.929Z,857.77
2017-09-06T12:01:37.423Z,857.73
2017-09-06T12:02:36.920Z,857.74
2017-09-06T12:03:36.912Z,857.71
2017-09-06T12:04:36.906Z,857.73
2017-09-06T12:05:37.047Z,857.72
2017-09-06T12:06:37.201Z,857.76
2017-09-06T12:07:37.192Z,857.74
2017-09-06T12:08:36.886Z,857.74
2017-09-06T12:09:37.079Z,857.79
2017-09-06T12:10:36.873Z,857.82
2017-09-06T12:11:36.914Z,857.78
2017-09-06T12:12:36.864Z,857.78
2017-09-06T12:13:36.976Z,857.77
2017-09-06T12:14:36.852Z,857.81
2017-09-06T12:15:37.098Z,857.80
2017-09-06T12:16:36.843Z,857.83
2017-09-06T12:17:36.873Z,857.81
2017-09-06T12:18:36.831Z,857.81
2017-09-06T12:19:36.825Z,857.79
2017-09-06T12:20:36.973Z,857.84
2017-09-06T12:21:37.367Z,857.84
2017-09-06T12:22:36.828Z,857.84
2017-09-06T12:23:36.804Z,857.85
2017-09-06T12:24:36.806Z,857.83
2017-09-06T12:25:36.794Z,857.84
2017-09-06T12:26:36.790Z,857.83
2017-09-06T12:27:37.036Z,857.83
2017-09-06T12:28:36.780Z,857.84